Startpagina
METAR-TAF:

METAR-TAF

Vliegvelden :

Montería, Colombia

breedte: 08-49N, lengte: 075-51W, hoogte: 20 m

Actueel weer

Dit bericht is 19 minuten geleden gemaakt, om 14:00 UTC
Weinig wind
Temperatuur 24°C
Vochtigheid 100%
Druk 1013 hPa
Zicht 10 km of meer
Verspreide wolken op 800 ft
Geheel bewolkt op 8000 ft

METAR: SKMR 231400Z 00000KT 9999 SCT008 OVC080 24/24 A2992

Tijdstip: 09:19 (14:19 UTC)


TAF: ontbreekt

Waarnemingen en weersverwachtingen van meer dan 4000 vliegvelden (METAR en TAF).

De beschikbare stations zijn de gele en rode punten op de kaart.

Ga met uw muis naar het station om de naam te zien.

Klik dan om waarnemingen en weersverwachtingen te zien.

kaart wijzigen: klik op de groene knoppen met een zwart kruis om in te zoomen, op de groene knop met een streepje om uit te zoomen of op de groene pijlen voor aangrenzende kaarten.


METAR-TAF: